createdAt,value
2018-02-04T00:02:25.776Z,92986.38
2018-02-04T00:04:53.110Z,92982.71
2018-02-04T00:07:19.718Z,92989.11
2018-02-04T00:09:46.294Z,92986.80
2018-02-04T00:12:12.924Z,92992.59
2018-02-04T00:14:39.609Z,93000.70
2018-02-04T00:17:07.177Z,92996.03
2018-02-04T00:19:33.832Z,93001.00
2018-02-04T00:22:00.475Z,92995.88
2018-02-04T00:24:27.121Z,92992.70
2018-02-04T00:26:54.511Z,92996.98
2018-02-04T00:29:21.117Z,93009.80
2018-02-04T00:31:48.519Z,93007.63
2018-02-04T00:34:15.129Z,93008.20
2018-02-04T00:36:41.750Z,93006.41
2018-02-04T00:39:08.364Z,93006.22
2018-02-04T00:41:34.991Z,93005.08
2018-02-04T00:44:02.511Z,92997.44
2018-02-04T00:46:29.853Z,93004.05
2018-02-04T00:48:56.457Z,93008.78
2018-02-04T00:51:23.032Z,93014.39
2018-02-04T00:53:49.621Z,93020.41
2018-02-04T00:56:16.234Z,93016.19
2018-02-04T00:58:42.830Z,93028.77
2018-02-04T01:01:10.173Z,93018.79
2018-02-04T01:03:37.505Z,93025.72
2018-02-04T01:06:04.186Z,93022.70
2018-02-04T01:08:30.785Z,93025.11
2018-02-04T01:10:57.451Z,93028.30
2018-02-04T01:13:24.109Z,93033.25
2018-02-04T01:15:50.678Z,93032.35
2018-02-04T01:18:17.278Z,93035.14
2018-02-04T01:20:43.898Z,93033.70
2018-02-04T01:23:10.457Z,93039.35
2018-02-04T01:25:37.052Z,93035.09
2018-02-04T01:28:04.443Z,93036.22
2018-02-04T01:30:31.172Z,93036.72
2018-02-04T01:32:57.724Z,93041.17
2018-02-04T01:35:24.301Z,93047.55
2018-02-04T01:37:50.909Z,93043.52
2018-02-04T01:40:17.518Z,93045.84
2018-02-04T01:42:44.166Z,93044.84
2018-02-04T01:45:10.729Z,93052.99
2018-02-04T01:47:37.280Z,93050.75
2018-02-04T01:50:03.918Z,93047.96
2018-02-04T01:52:30.481Z,93049.72
2018-02-04T01:54:57.094Z,93052.36
2018-02-04T01:57:23.723Z,93054.34
2018-02-04T01:59:50.298Z,93052.11
2018-02-04T02:02:16.892Z,93045.53
2018-02-04T02:04:43.469Z,93049.31
2018-02-04T02:07:10.037Z,93049.03
2018-02-04T02:09:36.651Z,93053.12
2018-02-04T02:12:03.293Z,93051.14
2018-02-04T02:14:30.631Z,93050.78
2018-02-04T02:16:57.177Z,93049.30
2018-02-04T02:19:24.550Z,93046.80
2018-02-04T02:21:51.154Z,93052.52
2018-02-04T02:24:17.732Z,93057.34
2018-02-04T02:26:44.365Z,93050.67
2018-02-04T02:29:11.714Z,93050.77
2018-02-04T02:31:38.317Z,93051.24
2018-02-04T02:34:04.903Z,93053.23
2018-02-04T02:36:31.488Z,93060.08
2018-02-04T02:38:58.089Z,93067.55
2018-02-04T02:41:24.653Z,93065.23
2018-02-04T02:43:52.000Z,93065.95
2018-02-04T02:46:18.601Z,93071.41
2018-02-04T02:48:45.177Z,93071.55
2018-02-04T02:51:11.775Z,93077.58
2018-02-04T02:53:38.423Z,93079.02
2018-02-04T02:56:05.037Z,93084.47
2018-02-04T02:58:31.591Z,93085.60
2018-02-04T03:00:58.157Z,93086.77
2018-02-04T03:03:24.755Z,93094.05
2018-02-04T03:05:51.341Z,93096.30
2018-02-04T03:08:17.985Z,93102.41
2018-02-04T03:10:44.542Z,93098.34
2018-02-04T03:13:11.200Z,93102.33
2018-02-04T03:15:37.836Z,93096.50
2018-02-04T03:18:04.430Z,93098.58
2018-02-04T03:20:31.014Z,93102.74
2018-02-04T03:22:57.582Z,93100.05
2018-02-04T03:25:24.264Z,93101.60
2018-02-04T03:27:50.851Z,93103.45
2018-02-04T03:30:17.451Z,93101.45
2018-02-04T03:32:44.046Z,93104.22
2018-02-04T03:35:11.385Z,93108.23
2018-02-04T03:37:37.919Z,93107.04
2018-02-04T03:40:04.553Z,93106.05
2018-02-04T03:42:31.173Z,93103.41
2018-02-04T03:44:57.764Z,93108.16
2018-02-04T03:47:24.324Z,93106.70
2018-02-04T03:49:50.889Z,93112.47
2018-02-04T03:52:17.499Z,93112.19
2018-02-04T03:54:44.126Z,93114.23
2018-02-04T03:57:10.709Z,93125.67
2018-02-04T03:59:38.102Z,93127.38
2018-02-04T04:02:04.685Z,93124.50
2018-02-04T04:04:31.295Z,93128.09
2018-02-04T04:06:57.873Z,93136.98
2018-02-04T04:09:24.452Z,93139.41
2018-02-04T04:11:51.114Z,93134.83
2018-02-04T04:14:17.717Z,93137.40
2018-02-04T04:16:44.280Z,93139.06
2018-02-04T04:19:10.910Z,93143.13
2018-02-04T04:21:38.282Z,93148.38
2018-02-04T04:24:04.869Z,93149.27
2018-02-04T04:26:31.546Z,93153.61
2018-02-04T04:28:58.158Z,93154.86
2018-02-04T04:31:25.491Z,93152.61
2018-02-04T04:33:52.056Z,93155.87
2018-02-04T04:36:18.641Z,93159.42
2018-02-04T04:38:45.237Z,93159.35
2018-02-04T04:41:11.866Z,93162.97
2018-02-04T04:43:38.444Z,93165.81
2018-02-04T04:46:08.518Z,93172.38
2018-02-04T04:48:37.000Z,93177.34
2018-02-04T04:51:04.330Z,93181.27
2018-02-04T04:53:30.902Z,93186.03
2018-02-04T04:55:58.227Z,93183.95
2018-02-04T04:58:25.550Z,93188.94
2018-02-04T05:00:52.093Z,93193.81
2018-02-04T05:03:18.733Z,93197.26
2018-02-04T05:05:45.344Z,93189.70
2018-02-04T05:08:11.937Z,93189.64
2018-02-04T05:10:38.530Z,93186.11
2018-02-04T05:13:05.122Z,93184.56
2018-02-04T05:15:32.463Z,93189.03
2018-02-04T05:17:59.278Z,93190.66
2018-02-04T05:20:25.872Z,93192.73
2018-02-04T05:22:52.434Z,93195.13
2018-02-04T05:25:19.041Z,93197.95
2018-02-04T05:27:45.662Z,93197.20
2018-02-04T05:30:12.270Z,93199.89
2018-02-04T05:32:38.850Z,93194.58
2018-02-04T05:35:05.432Z,93204.67
2018-02-04T05:37:32.047Z,93206.95
2018-02-04T05:39:58.665Z,93211.63
2018-02-04T05:42:25.275Z,93216.55
2018-02-04T05:44:51.896Z,93219.44
2018-02-04T05:47:18.547Z,93225.40
2018-02-04T05:49:46.099Z,93229.77
2018-02-04T05:52:12.730Z,93236.95
2018-02-04T05:54:39.321Z,93237.62
2018-02-04T05:57:05.919Z,93240.53
2018-02-04T05:59:32.510Z,93245.45
2018-02-04T06:01:59.118Z,93243.70
2018-02-04T06:04:25.712Z,93243.86
2018-02-04T06:06:53.122Z,93245.63
2018-02-04T06:09:19.689Z,93246.16
2018-02-04T06:11:46.280Z,93251.62
2018-02-04T06:14:12.910Z,93256.77
2018-02-04T06:16:39.453Z,93262.13
2018-02-04T06:19:06.396Z,93264.39
2018-02-04T06:21:32.977Z,93268.68
2018-02-04T06:24:00.522Z,93274.55
2018-02-04T06:26:27.362Z,93271.92
2018-02-04T06:28:53.950Z,93281.08
2018-02-04T06:31:20.542Z,93287.06
2018-02-04T06:33:47.173Z,93291.23
2018-02-04T06:36:13.793Z,93293.29
2018-02-04T06:38:40.405Z,93295.45
2018-02-04T06:41:07.395Z,93299.65
2018-02-04T06:43:33.954Z,93301.39
2018-02-04T06:46:00.510Z,93306.12
2018-02-04T06:48:27.187Z,93313.72
2018-02-04T06:50:53.754Z,93311.16
2018-02-04T06:53:20.406Z,93319.12
2018-02-04T06:55:46.994Z,93327.71
2018-02-04T06:58:14.427Z,93329.75
2018-02-04T07:00:41.055Z,93334.55
2018-02-04T07:03:08.401Z,93329.03
2018-02-04T07:05:34.975Z,93339.28
2018-02-04T07:08:01.614Z,93334.05
2018-02-04T07:10:28.194Z,93333.50
2018-02-04T07:12:55.522Z,93342.09
2018-02-04T07:15:22.136Z,93347.03
2018-02-04T07:17:48.714Z,93350.36
2018-02-04T07:20:15.330Z,93356.79
2018-02-04T07:22:42.690Z,93355.69
2018-02-04T07:25:09.254Z,93359.73
2018-02-04T07:27:35.838Z,93366.11
2018-02-04T07:30:02.431Z,93367.73
2018-02-04T07:32:29.009Z,93364.35
2018-02-04T07:34:55.582Z,93365.04
2018-02-04T07:37:22.134Z,93368.67
2018-02-04T07:39:48.682Z,93372.06
2018-02-04T07:42:15.268Z,93374.06
2018-02-04T07:44:41.883Z,93373.70
2018-02-04T07:47:08.604Z,93374.39
2018-02-04T07:49:36.062Z,93378.59
2018-02-04T07:52:02.798Z,93375.49
2018-02-04T07:54:30.106Z,93373.24
2018-02-04T07:56:56.691Z,93374.47
2018-02-04T07:59:23.356Z,93374.05
2018-02-04T08:01:49.918Z,93375.64
2018-02-04T08:04:16.543Z,93373.43
2018-02-04T08:06:43.175Z,93382.02
2018-02-04T08:09:09.742Z,93384.83
2018-02-04T08:11:36.451Z,93379.84
2018-02-04T08:14:03.021Z,93391.59
2018-02-04T08:16:29.694Z,93383.00
2018-02-04T08:18:56.306Z,93389.86
2018-02-04T08:21:23.701Z,93398.56
2018-02-04T08:23:50.337Z,93396.06
2018-02-04T08:26:16.916Z,93396.31
2018-02-04T08:28:43.514Z,93395.34
2018-02-04T08:31:10.125Z,93405.84
2018-02-04T08:33:36.718Z,93407.61
2018-02-04T08:36:03.354Z,93411.11
2018-02-04T08:38:29.944Z,93408.45
2018-02-04T08:40:57.270Z,93414.86
2018-02-04T08:43:23.887Z,93417.61
2018-02-04T08:45:50.546Z,93418.90
2018-02-04T08:48:17.336Z,93420.50
2018-02-04T08:50:44.018Z,93419.00
2018-02-04T08:53:10.631Z,93422.35
2018-02-04T08:55:37.281Z,93417.20
2018-02-04T08:58:03.895Z,93415.84
2018-02-04T09:00:30.587Z,93413.14
2018-02-04T09:02:57.901Z,93407.69
2018-02-04T09:05:24.486Z,93410.86
2018-02-04T09:07:51.960Z,93408.72
2018-02-04T09:10:18.601Z,93407.41
2018-02-04T09:12:45.214Z,93410.55
2018-02-04T09:15:12.591Z,93406.86
2018-02-04T09:17:39.264Z,93404.67
2018-02-04T09:20:05.925Z,93402.48
2018-02-04T09:22:33.358Z,93410.97
2018-02-04T09:24:59.967Z,93420.98
2018-02-04T09:27:26.578Z,93427.80
2018-02-04T09:29:53.893Z,93421.84
2018-02-04T09:32:20.564Z,93430.37
2018-02-04T09:34:47.153Z,93432.99
2018-02-04T09:37:13.743Z,93430.86
2018-02-04T09:39:41.095Z,93431.92
2018-02-04T09:42:09.234Z,93430.06
2018-02-04T09:44:35.843Z,93429.54
2018-02-04T09:47:02.454Z,93427.75
2018-02-04T09:49:29.054Z,93426.73
2018-02-04T09:51:55.719Z,93429.89
2018-02-04T09:54:23.063Z,93432.02
2018-02-04T09:56:50.433Z,93428.67
2018-02-04T09:59:17.749Z,93431.05
2018-02-04T10:01:44.369Z,93435.07
2018-02-04T10:04:10.969Z,93432.83
2018-02-04T10:06:37.715Z,93431.47
2018-02-04T10:09:04.365Z,93436.38
2018-02-04T10:11:30.986Z,93439.91
2018-02-04T10:13:58.615Z,93437.19
2018-02-04T10:16:26.026Z,93440.87
2018-02-04T10:18:52.960Z,93442.52
2018-02-04T10:21:20.381Z,93447.86
2018-02-04T10:23:47.054Z,93451.13
2018-02-04T10:26:13.661Z,93446.13
2018-02-04T10:28:40.450Z,93449.14
2018-02-04T10:31:07.060Z,93448.63
2018-02-04T10:33:33.770Z,93457.20
2018-02-04T10:36:00.330Z,93458.25
2018-02-04T10:38:27.010Z,93460.52
2018-02-04T10:40:53.629Z,93457.91
2018-02-04T10:43:20.291Z,93454.36
2018-02-04T10:45:46.863Z,93461.88
2018-02-04T10:48:13.482Z,93459.24
2018-02-04T10:50:46.964Z,93452.13
2018-02-04T10:53:13.573Z,93456.33
2018-02-04T10:55:40.359Z,93454.83
2018-02-04T10:58:06.935Z,93457.72
2018-02-04T11:00:33.602Z,93457.55
2018-02-04T11:03:00.206Z,93466.11
2018-02-04T11:05:26.832Z,93469.28
2018-02-04T11:07:53.472Z,93466.16
2018-02-04T11:10:20.077Z,93468.80
2018-02-04T11:12:46.718Z,93477.52
2018-02-04T11:15:14.046Z,93480.31
2018-02-04T11:17:40.661Z,93481.34
2018-02-04T11:20:07.336Z,93482.19
2018-02-04T11:22:33.979Z,93478.31
2018-02-04T11:25:01.308Z,93480.38
2018-02-04T11:27:28.004Z,93473.32
2018-02-04T11:29:54.789Z,93484.53
2018-02-04T11:32:24.412Z,93480.38
2018-02-04T11:34:51.783Z,93482.19
2018-02-04T11:37:18.390Z,93482.64
2018-02-04T11:39:45.123Z,93477.62
2018-02-04T11:42:11.710Z,93481.64
2018-02-04T11:44:39.334Z,93482.23
2018-02-04T11:47:06.135Z,93484.18
2018-02-04T11:49:32.957Z,93478.95
2018-02-04T11:52:00.287Z,93489.58
2018-02-04T11:54:26.913Z,93488.61
2018-02-04T11:56:53.650Z,93490.50
2018-02-04T11:59:21.038Z,93492.16
2018-02-04T12:01:48.411Z,93492.25
2018-02-04T12:04:15.122Z,93491.42
2018-02-04T12:06:41.781Z,93491.99
2018-02-04T12:09:09.136Z,93496.81
2018-02-04T12:11:36.508Z,93497.42
2018-02-04T12:14:03.346Z,93499.92
2018-02-04T12:16:29.953Z,93503.17
2018-02-04T12:18:56.528Z,93506.99
2018-02-04T12:21:23.262Z,93505.41
2018-02-04T12:23:49.900Z,93510.05
2018-02-04T12:26:16.461Z,93513.75
2018-02-04T12:28:43.178Z,93512.46
2018-02-04T12:31:09.741Z,93508.75
2018-02-04T12:33:36.424Z,93506.44
2018-02-04T12:36:03.115Z,93505.66
2018-02-04T12:38:30.624Z,93507.78
2018-02-04T12:40:57.979Z,93508.53
2018-02-04T12:43:24.601Z,93507.96
2018-02-04T12:45:51.250Z,93511.80
2018-02-04T12:48:17.917Z,93507.00
2018-02-04T12:50:44.552Z,93512.66
2018-02-04T12:53:11.938Z,93506.19
2018-02-04T12:55:38.554Z,93516.67
2018-02-04T12:58:05.212Z,93514.88
2018-02-04T13:00:31.844Z,93513.55
2018-02-04T13:02:59.457Z,93516.10
2018-02-04T13:05:26.103Z,93518.91
2018-02-04T13:07:52.705Z,93516.43
2018-02-04T13:10:19.353Z,93513.30
2018-02-04T13:12:46.006Z,93520.41
2018-02-04T13:15:12.638Z,93518.91
2018-02-04T13:17:40.027Z,93523.28
2018-02-04T13:20:06.633Z,93521.35
2018-02-04T13:22:33.287Z,93530.16
2018-02-04T13:24:59.926Z,93527.36
2018-02-04T13:27:26.551Z,93528.10
2018-02-04T13:29:53.167Z,93532.33
2018-02-04T13:32:19.753Z,93530.87
2018-02-04T13:34:46.418Z,93530.59
2018-02-04T13:37:13.043Z,93535.61
2018-02-04T13:39:39.657Z,93533.16
2018-02-04T13:42:06.249Z,93533.22
2018-02-04T13:44:32.927Z,93530.81
2018-02-04T13:46:59.627Z,93530.17
2018-02-04T13:49:26.255Z,93528.42
2018-02-04T13:51:53.795Z,93534.41
2018-02-04T13:54:20.453Z,93528.13
2018-02-04T13:56:47.116Z,93523.37
2018-02-04T13:59:13.830Z,93528.91
2018-02-04T14:01:40.434Z,93533.41
2018-02-04T14:04:07.170Z,93524.38
2018-02-04T14:06:33.771Z,93532.73
2018-02-04T14:09:01.113Z,93533.77
2018-02-04T14:11:28.682Z,93530.08
2018-02-04T14:13:56.116Z,93532.97
2018-02-04T14:16:22.758Z,93535.91
2018-02-04T14:18:49.433Z,93531.86
2018-02-04T14:21:16.828Z,93535.86
2018-02-04T14:23:43.443Z,93537.56
2018-02-04T14:26:10.255Z,93541.13
2018-02-04T14:28:36.940Z,93548.03
2018-02-04T14:31:03.658Z,93544.09
2018-02-04T14:33:30.511Z,93552.70
2018-02-04T14:35:57.152Z,93546.59
2018-02-04T14:38:23.758Z,93549.05
2018-02-04T14:40:50.379Z,93549.73
2018-02-04T14:43:17.826Z,93546.67
2018-02-04T14:45:44.415Z,93553.42
2018-02-04T14:48:12.862Z,93549.09
2018-02-04T14:50:39.505Z,93548.55
2018-02-04T14:53:06.130Z,93550.48
2018-02-04T14:55:33.485Z,93558.50
2018-02-04T14:58:00.125Z,93556.05
2018-02-04T15:00:27.123Z,93555.81
2018-02-04T15:02:53.733Z,93557.75
2018-02-04T15:05:21.135Z,93562.23
2018-02-04T15:07:47.782Z,93561.27
2018-02-04T15:10:15.135Z,93569.39
2018-02-04T15:12:42.506Z,93565.52
2018-02-04T15:15:09.883Z,93557.91
2018-02-04T15:17:36.547Z,93565.56
2018-02-04T15:20:03.169Z,93569.55
2018-02-04T15:22:29.855Z,93570.13
2018-02-04T15:24:56.493Z,93571.19
2018-02-04T15:27:23.134Z,93577.75
2018-02-04T15:29:50.526Z,93578.47
2018-02-04T15:32:17.158Z,93576.53
2018-02-04T15:34:43.830Z,93584.90
2018-02-04T15:37:10.491Z,93584.67
2018-02-04T15:39:37.171Z,93580.77
2018-02-04T15:42:04.070Z,93580.58
2018-02-04T15:44:30.678Z,93588.19
2018-02-04T15:46:57.289Z,93590.65
2018-02-04T15:49:24.887Z,93594.62
2018-02-04T15:51:51.533Z,93599.37
2018-02-04T15:54:18.216Z,93599.25
2018-02-04T15:56:45.580Z,93599.23
2018-02-04T15:59:12.234Z,93597.83
2018-02-04T16:01:38.942Z,93600.50
2018-02-04T16:04:06.394Z,93600.91
2018-02-04T16:06:33.724Z,93601.65
2018-02-04T16:09:00.344Z,93604.05
2018-02-04T16:11:27.068Z,93605.23
2018-02-04T16:13:53.655Z,93607.83
2018-02-04T16:16:20.403Z,93606.49
2018-02-04T16:18:47.727Z,93611.73
2018-02-04T16:21:14.453Z,93611.92
2018-02-04T16:23:41.092Z,93620.40
2018-02-04T16:26:07.869Z,93624.13
2018-02-04T16:28:35.229Z,93624.34
2018-02-04T16:31:02.612Z,93638.31
2018-02-04T16:33:29.230Z,93645.57
2018-02-04T16:35:55.838Z,93645.01
2018-02-04T16:38:22.540Z,93646.14
2018-02-04T16:40:49.137Z,93646.34
2018-02-04T16:43:15.825Z,93648.30
2018-02-04T16:45:42.446Z,93645.86
2018-02-04T16:48:09.085Z,93650.55
2018-02-04T16:50:35.915Z,93646.48
2018-02-04T16:53:02.513Z,93653.57
2018-02-04T16:55:29.256Z,93655.45
2018-02-04T16:57:56.654Z,93665.59
2018-02-04T17:00:23.375Z,93663.98
2018-02-04T17:02:50.027Z,93668.32
2018-02-04T17:05:16.674Z,93676.50
2018-02-04T17:07:43.381Z,93675.73
2018-02-04T17:10:10.024Z,93680.14
2018-02-04T17:12:36.647Z,93681.14
2018-02-04T17:15:04.075Z,93684.55
2018-02-04T17:17:30.669Z,93678.57
2018-02-04T17:19:58.406Z,93682.87
2018-02-04T17:22:25.074Z,93687.83
2018-02-04T17:24:51.937Z,93695.33
2018-02-04T17:27:18.555Z,93695.59
2018-02-04T17:29:45.205Z,93699.13
2018-02-04T17:32:11.897Z,93696.94
2018-02-04T17:34:38.607Z,93706.84
2018-02-04T17:37:05.212Z,93695.98
2018-02-04T17:39:31.864Z,93701.69
2018-02-04T17:41:58.530Z,93699.94
2018-02-04T17:44:25.173Z,93702.92
2018-02-04T17:46:52.638Z,93701.63
2018-02-04T17:49:20.052Z,93710.12
2018-02-04T17:51:46.839Z,93713.92
2018-02-04T17:54:13.586Z,93711.20
2018-02-04T17:56:40.960Z,93713.45
2018-02-04T17:59:07.780Z,93716.09
2018-02-04T18:01:35.259Z,93719.48
2018-02-04T18:04:01.883Z,93718.95
2018-02-04T18:06:28.562Z,93717.09
2018-02-04T18:08:55.186Z,93716.86
2018-02-04T18:11:22.079Z,93721.06
2018-02-04T18:13:48.682Z,93715.95
2018-02-04T18:16:15.286Z,93723.23
2018-02-04T18:18:42.039Z,93719.22
2018-02-04T18:21:08.695Z,93722.16
2018-02-04T18:23:35.381Z,93729.02
2018-02-04T18:26:02.139Z,93722.88
2018-02-04T18:28:28.792Z,93724.44
2018-02-04T18:30:55.459Z,93725.75
2018-02-04T18:33:22.278Z,93728.33
2018-02-04T18:35:49.049Z,93724.78
2018-02-04T18:38:15.729Z,93724.78
2018-02-04T18:40:42.447Z,93728.18
2018-02-04T18:43:09.133Z,93731.70
2018-02-04T18:45:35.804Z,93735.38
2018-02-04T18:48:03.238Z,93732.11
2018-02-04T18:50:29.950Z,93730.22
2018-02-04T18:52:56.611Z,93735.13
2018-02-04T18:55:24.611Z,93740.13
2018-02-04T18:57:51.287Z,93737.02
2018-02-04T19:00:17.966Z,93734.09
2018-02-04T19:02:45.493Z,93733.53
2018-02-04T19:05:12.988Z,93738.09
2018-02-04T19:07:39.693Z,93735.13
2018-02-04T19:10:06.404Z,93740.13
2018-02-04T19:12:33.157Z,93740.92
2018-02-04T19:14:59.819Z,93746.11
2018-02-04T19:17:26.567Z,93751.40
2018-02-04T19:19:53.192Z,93751.65
2018-02-04T19:22:19.803Z,93755.92
2018-02-04T19:24:46.433Z,93755.17
2018-02-04T19:27:13.082Z,93751.62
2018-02-04T19:29:39.780Z,93764.70
2018-02-04T19:32:06.730Z,93763.35
2018-02-04T19:34:34.132Z,93766.46
2018-02-04T19:37:00.880Z,93768.11
2018-02-04T19:39:27.480Z,93761.95
2018-02-04T19:41:55.016Z,93764.89
2018-02-04T19:44:21.674Z,93775.09
2018-02-04T19:46:48.339Z,93767.51
2018-02-04T19:49:15.375Z,93781.59
2018-02-04T19:51:41.999Z,93772.39
2018-02-04T19:54:08.627Z,93778.25
2018-02-04T19:56:35.378Z,93784.64
2018-02-04T19:59:02.897Z,93784.45
2018-02-04T20:01:29.621Z,93779.25
2018-02-04T20:03:56.246Z,93787.88
2018-02-04T20:06:22.975Z,93795.36
2018-02-04T20:08:49.587Z,93790.40
2018-02-04T20:11:16.172Z,93788.63
2018-02-04T20:13:42.804Z,93792.27
2018-02-04T20:16:09.431Z,93792.78
2018-02-04T20:18:36.086Z,93792.55
2018-02-04T20:21:02.732Z,93791.69
2018-02-04T20:23:29.386Z,93804.17
2018-02-04T20:25:55.997Z,93798.89
2018-02-04T20:28:22.604Z,93803.52
2018-02-04T20:30:49.311Z,93805.50
2018-02-04T20:33:22.051Z,93807.03
2018-02-04T20:35:48.774Z,93810.72
2018-02-04T20:38:15.480Z,93811.30
2018-02-04T20:40:42.141Z,93806.72
2018-02-04T20:43:08.786Z,93808.48
2018-02-04T20:45:36.205Z,93804.57
2018-02-04T20:48:03.646Z,93805.27
2018-02-04T20:50:31.067Z,93810.31
2018-02-04T20:52:57.719Z,93812.20
2018-02-04T20:55:24.371Z,93811.65
2018-02-04T20:57:51.069Z,93809.21
2018-02-04T21:00:17.775Z,93814.75
2018-02-04T21:02:44.443Z,93812.30
2018-02-04T21:05:11.955Z,93811.77
2018-02-04T21:07:39.083Z,93816.98
2018-02-04T21:10:05.760Z,93818.68
2018-02-04T21:12:32.478Z,93818.41
2018-02-04T21:14:59.120Z,93818.57
2018-02-04T21:17:25.807Z,93820.85
2018-02-04T21:19:52.486Z,93822.39
2018-02-04T21:22:19.943Z,93822.22
2018-02-04T21:24:46.639Z,93821.72
2018-02-04T21:27:14.022Z,93830.42
2018-02-04T21:29:40.741Z,93826.25
2018-02-04T21:32:07.338Z,93828.06
2018-02-04T21:34:33.948Z,93835.42
2018-02-04T21:37:01.575Z,93830.78
2018-02-04T21:39:28.252Z,93835.05
2018-02-04T21:41:54.890Z,93836.33
2018-02-04T21:44:21.552Z,93838.20
2018-02-04T21:46:48.243Z,93840.03
2018-02-04T21:49:14.864Z,93840.39
2018-02-04T21:51:41.595Z,93836.92
2018-02-04T21:54:09.560Z,93845.00
2018-02-04T21:56:36.189Z,93845.59
2018-02-04T21:59:03.662Z,93850.77
2018-02-04T22:01:30.269Z,93841.89
2018-02-04T22:03:56.938Z,93847.99
2018-02-04T22:06:24.327Z,93844.41
2018-02-04T22:08:50.928Z,93851.53
2018-02-04T22:11:17.579Z,93848.48
2018-02-04T22:13:44.557Z,93844.08
2018-02-04T22:16:11.172Z,93846.52
2018-02-04T22:18:37.913Z,93852.63
2018-02-04T22:21:04.546Z,93856.14
2018-02-04T22:23:31.210Z,93845.53
2018-02-04T22:25:57.905Z,93850.97
2018-02-04T22:28:24.572Z,93851.36
2018-02-04T22:30:51.266Z,93852.34
2018-02-04T22:33:17.864Z,93858.27
2018-02-04T22:35:44.673Z,93854.70
2018-02-04T22:38:11.303Z,93849.71
2018-02-04T22:40:37.885Z,93857.95
2018-02-04T22:43:04.592Z,93865.64
2018-02-04T22:45:31.320Z,93859.44
2018-02-04T22:47:58.402Z,93862.47
2018-02-04T22:50:25.799Z,93859.87
2018-02-04T22:52:53.179Z,93865.25
2018-02-04T22:55:19.846Z,93870.98
2018-02-04T22:57:46.459Z,93865.95
2018-02-04T23:00:13.074Z,93868.98
2018-02-04T23:02:39.827Z,93880.34
2018-02-04T23:05:06.502Z,93883.28
2018-02-04T23:07:33.154Z,93891.98
2018-02-04T23:09:59.757Z,93893.17
2018-02-04T23:12:26.333Z,93887.10
2018-02-04T23:14:52.926Z,93889.54
2018-02-04T23:17:19.761Z,93891.80
2018-02-04T23:19:46.441Z,93893.97
2018-02-04T23:22:13.818Z,93890.05
2018-02-04T23:24:41.214Z,93884.34
2018-02-04T23:27:07.802Z,93883.05
2018-02-04T23:29:34.392Z,93885.03
2018-02-04T23:32:01.169Z,93884.38
2018-02-04T23:34:27.746Z,93886.20
2018-02-04T23:36:55.138Z,93885.69
2018-02-04T23:39:21.994Z,93887.48
2018-02-04T23:41:48.588Z,93883.42
2018-02-04T23:44:15.182Z,93883.30
2018-02-04T23:46:41.797Z,93885.19
2018-02-04T23:49:08.401Z,93880.39
2018-02-04T23:51:35.005Z,93883.02
2018-02-04T23:54:01.614Z,93876.75
2018-02-04T23:56:28.238Z,93877.95
2018-02-04T23:58:54.801Z,93877.69
